sensor_id;sensor_type;location;lat;lon;timestamp;temperature;humidity
73277;DHT22;61501;43.316;5.372;2024-02-28T00:00:20;11.50;99.90
73277;DHT22;61501;43.316;5.372;2024-02-28T00:02:46;11.40;99.90
73277;DHT22;61501;43.316;5.372;2024-02-28T00:05:12;11.40;99.90
73277;DHT22;61501;43.316;5.372;2024-02-28T00:07:37;11.40;99.90
73277;DHT22;61501;43.316;5.372;2024-02-28T00:10:03;11.40;99.90
73277;DHT22;61501;43.316;5.372;2024-02-28T00:12:29;11.40;99.90
73277;DHT22;61501;43.316;5.372;2024-02-28T00:14:54;11.40;99.90
73277;DHT22;61501;43.316;5.372;2024-02-28T00:17:20;11.50;99.90
73277;DHT22;61501;43.316;5.372;2024-02-28T00:19:46;11.50;99.90
73277;DHT22;61501;43.316;5.372;2024-02-28T00:22:11;11.40;99.90
73277;DHT22;61501;43.316;5.372;2024-02-28T00:24:37;11.50;99.90
73277;DHT22;61501;43.316;5.372;2024-02-28T00:27:02;11.50;99.90
73277;DHT22;61501;43.316;5.372;2024-02-28T00:29:28;11.40;99.90
73277;DHT22;61501;43.316;5.372;2024-02-28T00:31:53;11.30;99.90
73277;DHT22;61501;43.316;5.372;2024-02-28T00:34:19;11.40;99.90
73277;DHT22;61501;43.316;5.372;2024-02-28T00:36:45;11.40;99.90
73277;DHT22;61501;43.316;5.372;2024-02-28T00:39:11;11.30;99.90
73277;DHT22;61501;43.316;5.372;2024-02-28T00:41:37;11.20;99.90
73277;DHT22;61501;43.316;5.372;2024-02-28T00:44:03;11.20;99.90
73277;DHT22;61501;43.316;5.372;2024-02-28T00:46:29;11.20;99.90
73277;DHT22;61501;43.316;5.372;2024-02-28T00:48:54;11.20;99.90
73277;DHT22;61501;43.316;5.372;2024-02-28T00:51:20;11.20;99.90
73277;DHT22;61501;43.316;5.372;2024-02-28T00:53:46;11.20;99.90
73277;DHT22;61501;43.316;5.372;2024-02-28T00:56:11;11.20;99.90
73277;DHT22;61501;43.316;5.372;2024-02-28T00:58:37;11.20;99.90
73277;DHT22;61501;43.316;5.372;2024-02-28T01:01:04;11.20;99.90
73277;DHT22;61501;43.316;5.372;2024-02-28T01:03:29;11.20;99.90
73277;DHT22;61501;43.316;5.372;2024-02-28T01:05:55;11.20;99.90
73277;DHT22;61501;43.316;5.372;2024-02-28T01:08:20;11.30;99.90
73277;DHT22;61501;43.316;5.372;2024-02-28T01:10:46;11.30;99.90
73277;DHT22;61501;43.316;5.372;2024-02-28T01:13:12;11.30;99.90
73277;DHT22;61501;43.316;5.372;2024-02-28T01:15:42;11.30;99.90
73277;DHT22;61501;43.316;5.372;2024-02-28T01:18:09;11.30;99.90
73277;DHT22;61501;43.316;5.372;2024-02-28T01:20:35;11.30;99.90
73277;DHT22;61501;43.316;5.372;2024-02-28T01:23:01;11.30;99.90
73277;DHT22;61501;43.316;5.372;2024-02-28T01:25:26;11.40;99.90
73277;DHT22;61501;43.316;5.372;2024-02-28T01:27:52;11.30;99.90
73277;DHT22;61501;43.316;5.372;2024-02-28T01:30:17;11.30;99.90
73277;DHT22;61501;43.316;5.372;2024-02-28T01:32:44;11.40;99.90
73277;DHT22;61501;43.316;5.372;2024-02-28T01:35:09;11.40;99.90
73277;DHT22;61501;43.316;5.372;2024-02-28T01:37:35;11.40;99.90
73277;DHT22;61501;43.316;5.372;2024-02-28T01:40:01;11.40;99.90
73277;DHT22;61501;43.316;5.372;2024-02-28T01:42:26;11.40;99.90
73277;DHT22;61501;43.316;5.372;2024-02-28T01:44:52;11.30;99.90
73277;DHT22;61501;43.316;5.372;2024-02-28T01:47:18;11.30;99.90
73277;DHT22;61501;43.316;5.372;2024-02-28T01:49:44;11.30;99.90
73277;DHT22;61501;43.316;5.372;2024-02-28T01:52:11;11.30;99.90
73277;DHT22;61501;43.316;5.372;2024-02-28T01:54:38;11.40;99.90
73277;DHT22;61501;43.316;5.372;2024-02-28T01:57:05;11.40;99.90
73277;DHT22;61501;43.316;5.372;2024-02-28T01:59:32;11.20;99.90
73277;DHT22;61501;43.316;5.372;2024-02-28T02:01:58;11.30;99.90
73277;DHT22;61501;43.316;5.372;2024-02-28T02:04:24;11.20;99.90
73277;DHT22;61501;43.316;5.372;2024-02-28T02:06:50;11.20;99.90
73277;DHT22;61501;43.316;5.372;2024-02-28T02:09:18;11.30;99.90
73277;DHT22;61501;43.316;5.372;2024-02-28T02:11:44;11.30;99.90
73277;DHT22;61501;43.316;5.372;2024-02-28T02:14:10;11.40;99.90
73277;DHT22;61501;43.316;5.372;2024-02-28T02:16:35;11.30;99.90
73277;DHT22;61501;43.316;5.372;2024-02-28T02:19:01;11.50;99.90
73277;DHT22;61501;43.316;5.372;2024-02-28T02:21:30;11.40;99.90
73277;DHT22;61501;43.316;5.372;2024-02-28T02:23:56;11.50;99.90
73277;DHT22;61501;43.316;5.372;2024-02-28T02:26:22;11.50;99.90
73277;DHT22;61501;43.316;5.372;2024-02-28T02:28:47;11.50;99.90
73277;DHT22;61501;43.316;5.372;2024-02-28T02:31:13;11.50;99.90
73277;DHT22;61501;43.316;5.372;2024-02-28T02:33:39;11.50;99.90
73277;DHT22;61501;43.316;5.372;2024-02-28T02:36:05;11.50;99.90
73277;DHT22;61501;43.316;5.372;2024-02-28T02:38:30;11.50;99.90
73277;DHT22;61501;43.316;5.372;2024-02-28T02:40:56;11.50;99.90
73277;DHT22;61501;43.316;5.372;2024-02-28T02:43:22;11.60;99.90
73277;DHT22;61501;43.316;5.372;2024-02-28T02:45:47;11.50;99.90
73277;DHT22;61501;43.316;5.372;2024-02-28T02:48:13;11.50;99.90
73277;DHT22;61501;43.316;5.372;2024-02-28T02:50:39;11.40;99.90
73277;DHT22;61501;43.316;5.372;2024-02-28T02:53:06;11.50;99.90
73277;DHT22;61501;43.316;5.372;2024-02-28T02:55:32;11.40;99.90
73277;DHT22;61501;43.316;5.372;2024-02-28T02:57:58;11.40;99.90
73277;DHT22;61501;43.316;5.372;2024-02-28T03:00:23;11.40;99.90
73277;DHT22;61501;43.316;5.372;2024-02-28T03:02:49;11.30;99.90
73277;DHT22;61501;43.316;5.372;2024-02-28T03:05:14;11.20;99.90
73277;DHT22;61501;43.316;5.372;2024-02-28T03:07:40;11.20;99.90
73277;DHT22;61501;43.316;5.372;2024-02-28T03:10:06;11.20;99.90
73277;DHT22;61501;43.316;5.372;2024-02-28T03:12:32;11.30;99.90
73277;DHT22;61501;43.316;5.372;2024-02-28T03:14:58;11.20;99.90
73277;DHT22;61501;43.316;5.372;2024-02-28T03:17:23;11.20;99.90
73277;DHT22;61501;43.316;5.372;2024-02-28T03:19:49;11.10;99.90
73277;DHT22;61501;43.316;5.372;2024-02-28T03:22:15;11.20;99.90
73277;DHT22;61501;43.316;5.372;2024-02-28T03:24:41;11.20;99.90
73277;DHT22;61501;43.316;5.372;2024-02-28T03:27:06;11.20;99.90
73277;DHT22;61501;43.316;5.372;2024-02-28T03:29:32;11.10;99.90
73277;DHT22;61501;43.316;5.372;2024-02-28T03:31:58;11.10;99.90
73277;DHT22;61501;43.316;5.372;2024-02-28T03:34:24;11.20;99.90
73277;DHT22;61501;43.316;5.372;2024-02-28T03:36:50;11.30;99.90
73277;DHT22;61501;43.316;5.372;2024-02-28T03:39:16;11.30;99.90
73277;DHT22;61501;43.316;5.372;2024-02-28T03:41:42;11.20;99.90
73277;DHT22;61501;43.316;5.372;2024-02-28T03:44:08;11.20;99.90
73277;DHT22;61501;43.316;5.372;2024-02-28T03:46:34;11.20;99.90
73277;DHT22;61501;43.316;5.372;2024-02-28T03:48:59;11.10;99.90
73277;DHT22;61501;43.316;5.372;2024-02-28T03:51:25;11.10;99.90
73277;DHT22;61501;43.316;5.372;2024-02-28T03:53:51;11.00;99.90
73277;DHT22;61501;43.316;5.372;2024-02-28T03:56:23;11.00;99.90
73277;DHT22;61501;43.316;5.372;2024-02-28T03:58:52;11.00;99.90
73277;DHT22;61501;43.316;5.372;2024-02-28T04:01:19;10.90;99.90
73277;DHT22;61501;43.316;5.372;2024-02-28T04:03:45;11.00;99.90
73277;DHT22;61501;43.316;5.372;2024-02-28T04:06:11;10.90;99.90
73277;DHT22;61501;43.316;5.372;2024-02-28T04:08:40;10.90;99.90
73277;DHT22;61501;43.316;5.372;2024-02-28T04:11:06;10.90;99.90
73277;DHT22;61501;43.316;5.372;2024-02-28T04:13:32;10.90;99.90
73277;DHT22;61501;43.316;5.372;2024-02-28T04:15:57;10.80;99.90
73277;DHT22;61501;43.316;5.372;2024-02-28T04:18:23;10.90;99.90
73277;DHT22;61501;43.316;5.372;2024-02-28T04:20:49;10.80;99.90
73277;DHT22;61501;43.316;5.372;2024-02-28T04:23:14;10.80;99.90
73277;DHT22;61501;43.316;5.372;2024-02-28T04:25:40;10.70;99.90
73277;DHT22;61501;43.316;5.372;2024-02-28T04:28:06;10.80;99.90
73277;DHT22;61501;43.316;5.372;2024-02-28T04:30:34;10.80;99.90
73277;DHT22;61501;43.316;5.372;2024-02-28T04:32:59;10.80;99.90
73277;DHT22;61501;43.316;5.372;2024-02-28T04:35:25;10.80;99.90
73277;DHT22;61501;43.316;5.372;2024-02-28T04:37:50;10.70;99.90
73277;DHT22;61501;43.316;5.372;2024-02-28T04:40:16;10.80;99.90
73277;DHT22;61501;43.316;5.372;2024-02-28T04:42:42;10.80;99.90
73277;DHT22;61501;43.316;5.372;2024-02-28T04:45:10;10.80;99.90
73277;DHT22;61501;43.316;5.372;2024-02-28T04:47:37;10.70;99.90
73277;DHT22;61501;43.316;5.372;2024-02-28T04:50:04;10.70;99.90
73277;DHT22;61501;43.316;5.372;2024-02-28T04:52:31;10.70;99.90
73277;DHT22;61501;43.316;5.372;2024-02-28T04:54:56;10.70;99.90
73277;DHT22;61501;43.316;5.372;2024-02-28T04:57:22;10.70;99.90
73277;DHT22;61501;43.316;5.372;2024-02-28T04:59:47;10.70;99.90
73277;DHT22;61501;43.316;5.372;2024-02-28T05:02:13;10.80;99.90
73277;DHT22;61501;43.316;5.372;2024-02-28T05:04:39;10.90;99.90
73277;DHT22;61501;43.316;5.372;2024-02-28T05:07:04;10.80;99.90
73277;DHT22;61501;43.316;5.372;2024-02-28T05:09:33;10.80;99.90
73277;DHT22;61501;43.316;5.372;2024-02-28T05:11:58;10.80;99.90
73277;DHT22;61501;43.316;5.372;2024-02-28T05:14:24;10.70;99.90
73277;DHT22;61501;43.316;5.372;2024-02-28T05:16:50;10.80;99.90
73277;DHT22;61501;43.316;5.372;2024-02-28T05:19:16;10.70;99.90
73277;DHT22;61501;43.316;5.372;2024-02-28T05:21:45;10.70;99.90
73277;DHT22;61501;43.316;5.372;2024-02-28T05:24:11;10.70;99.90
73277;DHT22;61501;43.316;5.372;2024-02-28T05:26:37;10.70;99.90
73277;DHT22;61501;43.316;5.372;2024-02-28T05:29:04;10.70;99.90
73277;DHT22;61501;43.316;5.372;2024-02-28T05:31:30;10.70;99.90
73277;DHT22;61501;43.316;5.372;2024-02-28T05:34:00;10.60;99.90
73277;DHT22;61501;43.316;5.372;2024-02-28T05:36:28;10.60;99.90
73277;DHT22;61501;43.316;5.372;2024-02-28T05:38:54;10.60;99.90
73277;DHT22;61501;43.316;5.372;2024-02-28T05:41:20;10.60;99.90
73277;DHT22;61501;43.316;5.372;2024-02-28T05:43:46;10.60;99.90
73277;DHT22;61501;43.316;5.372;2024-02-28T05:46:12;10.50;99.90
73277;DHT22;61501;43.316;5.372;2024-02-28T05:48:40;10.50;99.90
73277;DHT22;61501;43.316;5.372;2024-02-28T05:51:06;10.40;99.90
73277;DHT22;61501;43.316;5.372;2024-02-28T05:53:32;10.40;99.90
73277;DHT22;61501;43.316;5.372;2024-02-28T05:56:01;10.50;99.90
73277;DHT22;61501;43.316;5.372;2024-02-28T05:58:27;10.40;99.90
73277;DHT22;61501;43.316;5.372;2024-02-28T06:00:52;10.40;99.90
73277;DHT22;61501;43.316;5.372;2024-02-28T06:03:18;10.40;99.90
73277;DHT22;61501;43.316;5.372;2024-02-28T06:05:44;10.40;99.90
73277;DHT22;61501;43.316;5.372;2024-02-28T06:08:09;10.40;99.90
73277;DHT22;61501;43.316;5.372;2024-02-28T06:10:35;10.40;99.90
73277;DHT22;61501;43.316;5.372;2024-02-28T06:13:02;10.40;99.90
73277;DHT22;61501;43.316;5.372;2024-02-28T06:15:28;10.30;99.90
73277;DHT22;61501;43.316;5.372;2024-02-28T06:17:57;10.30;99.90
73277;DHT22;61501;43.316;5.372;2024-02-28T06:20:22;10.40;99.90
73277;DHT22;61501;43.316;5.372;2024-02-28T06:22:48;10.40;99.90
73277;DHT22;61501;43.316;5.372;2024-02-28T06:25:13;10.40;99.90
73277;DHT22;61501;43.316;5.372;2024-02-28T06:27:44;10.40;99.90
73277;DHT22;61501;43.316;5.372;2024-02-28T06:30:11;10.40;99.90
73277;DHT22;61501;43.316;5.372;2024-02-28T06:32:40;10.40;99.90
73277;DHT22;61501;43.316;5.372;2024-02-28T06:35:06;10.40;99.90
73277;DHT22;61501;43.316;5.372;2024-02-28T06:37:33;10.50;99.90
73277;DHT22;61501;43.316;5.372;2024-02-28T06:40:00;10.40;99.90
73277;DHT22;61501;43.316;5.372;2024-02-28T06:42:26;10.40;99.90
73277;DHT22;61501;43.316;5.372;2024-02-28T06:44:51;10.50;99.90
73277;DHT22;61501;43.316;5.372;2024-02-28T06:47:17;10.40;99.90
73277;DHT22;61501;43.316;5.372;2024-02-28T06:49:44;10.40;99.90
73277;DHT22;61501;43.316;5.372;2024-02-28T06:52:09;10.40;99.90
73277;DHT22;61501;43.316;5.372;2024-02-28T06:54:35;10.40;99.90
73277;DHT22;61501;43.316;5.372;2024-02-28T06:57:01;10.40;99.90
73277;DHT22;61501;43.316;5.372;2024-02-28T06:59:28;10.50;99.90
73277;DHT22;61501;43.316;5.372;2024-02-28T07:01:54;10.50;99.90
73277;DHT22;61501;43.316;5.372;2024-02-28T07:04:19;10.50;99.90
73277;DHT22;61501;43.316;5.372;2024-02-28T07:06:45;10.50;99.90
73277;DHT22;61501;43.316;5.372;2024-02-28T07:09:11;10.50;99.90
73277;DHT22;61501;43.316;5.372;2024-02-28T07:11:38;10.60;99.90
73277;DHT22;61501;43.316;5.372;2024-02-28T07:14:04;10.60;99.90
73277;DHT22;61501;43.316;5.372;2024-02-28T07:16:30;10.70;99.90
73277;DHT22;61501;43.316;5.372;2024-02-28T07:18:57;10.70;99.90
73277;DHT22;61501;43.316;5.372;2024-02-28T07:21:23;10.60;99.90
73277;DHT22;61501;43.316;5.372;2024-02-28T07:23:49;10.60;99.90
73277;DHT22;61501;43.316;5.372;2024-02-28T07:26:18;10.60;99.90
73277;DHT22;61501;43.316;5.372;2024-02-28T07:28:43;10.50;99.90
73277;DHT22;61501;43.316;5.372;2024-02-28T07:31:18;10.50;99.90
73277;DHT22;61501;43.316;5.372;2024-02-28T07:33:45;10.60;99.90
73277;DHT22;61501;43.316;5.372;2024-02-28T07:36:11;10.50;99.90
73277;DHT22;61501;43.316;5.372;2024-02-28T07:38:36;10.60;99.90
73277;DHT22;61501;43.316;5.372;2024-02-28T07:41:02;10.50;99.90
73277;DHT22;61501;43.316;5.372;2024-02-28T07:43:28;10.50;99.90
73277;DHT22;61501;43.316;5.372;2024-02-28T07:45:58;10.60;99.90
73277;DHT22;61501;43.316;5.372;2024-02-28T07:48:24;10.60;99.90
73277;DHT22;61501;43.316;5.372;2024-02-28T07:50:49;10.60;99.90
73277;DHT22;61501;43.316;5.372;2024-02-28T07:53:16;10.50;99.90
73277;DHT22;61501;43.316;5.372;2024-02-28T07:55:42;10.60;99.90
73277;DHT22;61501;43.316;5.372;2024-02-28T07:58:08;10.60;99.90
73277;DHT22;61501;43.316;5.372;2024-02-28T08:00:34;10.60;99.90
73277;DHT22;61501;43.316;5.372;2024-02-28T08:03:00;10.70;99.90
73277;DHT22;61501;43.316;5.372;2024-02-28T08:05:25;10.80;99.90
73277;DHT22;61501;43.316;5.372;2024-02-28T08:07:51;10.80;99.90
73277;DHT22;61501;43.316;5.372;2024-02-28T08:10:17;10.80;99.90
73277;DHT22;61501;43.316;5.372;2024-02-28T08:12:43;10.80;99.90
73277;DHT22;61501;43.316;5.372;2024-02-28T08:15:09;10.70;99.90
73277;DHT22;61501;43.316;5.372;2024-02-28T08:17:34;10.70;99.90
73277;DHT22;61501;43.316;5.372;2024-02-28T08:20:00;10.80;99.90
73277;DHT22;61501;43.316;5.372;2024-02-28T08:22:26;10.90;99.90
73277;DHT22;61501;43.316;5.372;2024-02-28T08:24:52;11.00;99.90
73277;DHT22;61501;43.316;5.372;2024-02-28T08:27:18;10.90;99.90
73277;DHT22;61501;43.316;5.372;2024-02-28T08:29:43;11.00;99.90
73277;DHT22;61501;43.316;5.372;2024-02-28T08:32:11;11.10;99.90
73277;DHT22;61501;43.316;5.372;2024-02-28T08:34:36;11.20;99.90
73277;DHT22;61501;43.316;5.372;2024-02-28T08:37:02;11.20;99.90
73277;DHT22;61501;43.316;5.372;2024-02-28T08:39:28;11.20;99.90
73277;DHT22;61501;43.316;5.372;2024-02-28T08:41:53;11.30;99.90
73277;DHT22;61501;43.316;5.372;2024-02-28T08:44:19;11.30;99.90
73277;DHT22;61501;43.316;5.372;2024-02-28T08:46:47;11.20;99.90
73277;DHT22;61501;43.316;5.372;2024-02-28T08:49:14;11.30;99.90
73277;DHT22;61501;43.316;5.372;2024-02-28T08:51:39;11.60;99.90
73277;DHT22;61501;43.316;5.372;2024-02-28T08:54:05;11.70;99.90
73277;DHT22;61501;43.316;5.372;2024-02-28T08:56:31;11.90;99.90
73277;DHT22;61501;43.316;5.372;2024-02-28T08:58:57;12.00;99.90
73277;DHT22;61501;43.316;5.372;2024-02-28T09:01:22;12.50;99.90
73277;DHT22;61501;43.316;5.372;2024-02-28T09:03:48;12.70;99.90
73277;DHT22;61501;43.316;5.372;2024-02-28T09:06:14;12.70;99.90
73277;DHT22;61501;43.316;5.372;2024-02-28T09:08:40;12.60;99.90
73277;DHT22;61501;43.316;5.372;2024-02-28T09:11:05;12.80;99.90
73277;DHT22;61501;43.316;5.372;2024-02-28T09:13:31;13.10;99.90
73277;DHT22;61501;43.316;5.372;2024-02-28T09:15:57;13.30;99.90
73277;DHT22;61501;43.316;5.372;2024-02-28T09:18:23;13.30;99.90
73277;DHT22;61501;43.316;5.372;2024-02-28T09:20:48;13.30;99.90
73277;DHT22;61501;43.316;5.372;2024-02-28T09:23:14;13.40;99.90
73277;DHT22;61501;43.316;5.372;2024-02-28T09:25:40;13.30;99.90
73277;DHT22;61501;43.316;5.372;2024-02-28T09:28:06;13.10;99.90
73277;DHT22;61501;43.316;5.372;2024-02-28T09:30:31;13.20;99.90
73277;DHT22;61501;43.316;5.372;2024-02-28T09:32:57;13.00;99.90
73277;DHT22;61501;43.316;5.372;2024-02-28T09:35:22;12.60;99.90
73277;DHT22;61501;43.316;5.372;2024-02-28T09:37:48;12.50;99.90
73277;DHT22;61501;43.316;5.372;2024-02-28T09:40:14;12.40;99.90
73277;DHT22;61501;43.316;5.372;2024-02-28T09:42:39;12.30;99.90
73277;DHT22;61501;43.316;5.372;2024-02-28T09:45:08;12.40;99.90
73277;DHT22;61501;43.316;5.372;2024-02-28T09:47:35;12.30;99.90
73277;DHT22;61501;43.316;5.372;2024-02-28T09:50:01;12.30;99.90
73277;DHT22;61501;43.316;5.372;2024-02-28T09:52:28;12.10;99.90
73277;DHT22;61501;43.316;5.372;2024-02-28T09:54:54;12.00;99.90
73277;DHT22;61501;43.316;5.372;2024-02-28T09:57:19;12.00;99.90
73277;DHT22;61501;43.316;5.372;2024-02-28T09:59:46;12.00;99.90
73277;DHT22;61501;43.316;5.372;2024-02-28T10:02:12;12.00;99.90
73277;DHT22;61501;43.316;5.372;2024-02-28T10:04:40;12.10;99.90
73277;DHT22;61501;43.316;5.372;2024-02-28T10:07:13;12.10;99.90
73277;DHT22;61501;43.316;5.372;2024-02-28T10:09:39;12.10;99.90
73277;DHT22;61501;43.316;5.372;2024-02-28T10:12:05;12.10;99.90
73277;DHT22;61501;43.316;5.372;2024-02-28T10:14:31;12.10;99.90
73277;DHT22;61501;43.316;5.372;2024-02-28T10:16:57;12.10;99.90
73277;DHT22;61501;43.316;5.372;2024-02-28T10:19:22;12.10;99.90
73277;DHT22;61501;43.316;5.372;2024-02-28T10:21:48;12.20;99.90
73277;DHT22;61501;43.316;5.372;2024-02-28T10:24:13;12.40;99.90
73277;DHT22;61501;43.316;5.372;2024-02-28T10:26:46;12.30;99.90
73277;DHT22;61501;43.316;5.372;2024-02-28T10:29:24;12.20;99.90
73277;DHT22;61501;43.316;5.372;2024-02-28T10:31:54;12.30;99.90
73277;DHT22;61501;43.316;5.372;2024-02-28T10:34:20;12.50;99.90
73277;DHT22;61501;43.316;5.372;2024-02-28T10:36:46;12.70;99.90
73277;DHT22;61501;43.316;5.372;2024-02-28T10:39:12;12.70;99.90
73277;DHT22;61501;43.316;5.372;2024-02-28T10:41:38;12.50;99.90
73277;DHT22;61501;43.316;5.372;2024-02-28T10:44:04;12.40;99.90
73277;DHT22;61501;43.316;5.372;2024-02-28T10:46:31;12.60;99.90
73277;DHT22;61501;43.316;5.372;2024-02-28T10:48:57;12.70;99.90
73277;DHT22;61501;43.316;5.372;2024-02-28T10:51:26;13.00;99.90
73277;DHT22;61501;43.316;5.372;2024-02-28T10:54:07;13.20;99.90
73277;DHT22;61501;43.316;5.372;2024-02-28T10:56:34;13.00;99.90
73277;DHT22;61501;43.316;5.372;2024-02-28T10:59:01;12.90;99.90
73277;DHT22;61501;43.316;5.372;2024-02-28T11:01:27;13.10;99.90
73277;DHT22;61501;43.316;5.372;2024-02-28T11:03:53;13.20;99.90
73277;DHT22;61501;43.316;5.372;2024-02-28T11:06:21;13.30;99.90
73277;DHT22;61501;43.316;5.372;2024-02-28T11:08:48;13.40;99.90
73277;DHT22;61501;43.316;5.372;2024-02-28T11:11:21;13.30;99.90
73277;DHT22;61501;43.316;5.372;2024-02-28T11:13:54;13.40;99.90
73277;DHT22;61501;43.316;5.372;2024-02-28T11:16:33;13.70;99.90
73277;DHT22;61501;43.316;5.372;2024-02-28T11:19:00;13.90;99.90
73277;DHT22;61501;43.316;5.372;2024-02-28T11:21:27;14.20;99.90
73277;DHT22;61501;43.316;5.372;2024-02-28T11:24:00;14.20;99.90
73277;DHT22;61501;43.316;5.372;2024-02-28T11:26:26;14.30;99.90
73277;DHT22;61501;43.316;5.372;2024-02-28T11:28:54;14.30;99.90
73277;DHT22;61501;43.316;5.372;2024-02-28T11:31:21;14.30;99.90
73277;DHT22;61501;43.316;5.372;2024-02-28T11:33:46;14.50;99.90
73277;DHT22;61501;43.316;5.372;2024-02-28T11:36:12;14.80;99.90
73277;DHT22;61501;43.316;5.372;2024-02-28T11:38:39;14.50;99.90
73277;DHT22;61501;43.316;5.372;2024-02-28T11:41:05;14.50;99.90
73277;DHT22;61501;43.316;5.372;2024-02-28T11:43:32;14.30;99.90
73277;DHT22;61501;43.316;5.372;2024-02-28T11:45:58;14.40;99.90
73277;DHT22;61501;43.316;5.372;2024-02-28T11:48:25;14.30;99.90
73277;DHT22;61501;43.316;5.372;2024-02-28T11:50:53;14.40;99.90
73277;DHT22;61501;43.316;5.372;2024-02-28T11:53:19;14.40;99.90
73277;DHT22;61501;43.316;5.372;2024-02-28T11:55:45;14.30;99.90
73277;DHT22;61501;43.316;5.372;2024-02-28T11:58:13;14.30;99.90
73277;DHT22;61501;43.316;5.372;2024-02-28T12:00:51;14.50;99.90
73277;DHT22;61501;43.316;5.372;2024-02-28T12:03:24;14.70;99.90
73277;DHT22;61501;43.316;5.372;2024-02-28T12:05:50;15.10;99.90
73277;DHT22;61501;43.316;5.372;2024-02-28T12:08:20;15.40;99.90
73277;DHT22;61501;43.316;5.372;2024-02-28T12:10:46;15.70;99.90
73277;DHT22;61501;43.316;5.372;2024-02-28T12:13:19;16.00;99.90
73277;DHT22;61501;43.316;5.372;2024-02-28T12:15:45;15.80;99.90
73277;DHT22;61501;43.316;5.372;2024-02-28T12:18:15;15.60;99.90
73277;DHT22;61501;43.316;5.372;2024-02-28T12:20:40;15.60;99.90
73277;DHT22;61501;43.316;5.372;2024-02-28T12:23:06;15.60;99.90
73277;DHT22;61501;43.316;5.372;2024-02-28T12:25:33;15.80;99.90
73277;DHT22;61501;43.316;5.372;2024-02-28T12:28:00;15.90;99.90
73277;DHT22;61501;43.316;5.372;2024-02-28T12:30:26;15.50;99.90
73277;DHT22;61501;43.316;5.372;2024-02-28T12:32:52;15.30;99.90
73277;DHT22;61501;43.316;5.372;2024-02-28T12:35:17;15.40;99.90
73277;DHT22;61501;43.316;5.372;2024-02-28T12:37:43;15.70;99.90
73277;DHT22;61501;43.316;5.372;2024-02-28T12:40:09;15.70;99.90
73277;DHT22;61501;43.316;5.372;2024-02-28T12:42:37;15.40;99.90
73277;DHT22;61501;43.316;5.372;2024-02-28T12:45:03;15.40;99.90
73277;DHT22;61501;43.316;5.372;2024-02-28T12:47:29;15.30;99.90
73277;DHT22;61501;43.316;5.372;2024-02-28T12:49:57;15.20;99.90
73277;DHT22;61501;43.316;5.372;2024-02-28T12:52:22;15.20;99.90
73277;DHT22;61501;43.316;5.372;2024-02-28T12:54:48;15.50;99.90
73277;DHT22;61501;43.316;5.372;2024-02-28T12:57:14;15.70;99.90
73277;DHT22;61501;43.316;5.372;2024-02-28T12:59:42;15.50;99.90
73277;DHT22;61501;43.316;5.372;2024-02-28T13:02:09;15.40;99.90
73277;DHT22;61501;43.316;5.372;2024-02-28T13:04:35;15.50;99.90
73277;DHT22;61501;43.316;5.372;2024-02-28T13:07:00;15.50;99.90
73277;DHT22;61501;43.316;5.372;2024-02-28T13:09:26;15.20;99.90
73277;DHT22;61501;43.316;5.372;2024-02-28T13:11:52;15.10;99.90
73277;DHT22;61501;43.316;5.372;2024-02-28T13:14:17;15.00;99.90
73277;DHT22;61501;43.316;5.372;2024-02-28T13:16:44;15.00;99.90
73277;DHT22;61501;43.316;5.372;2024-02-28T13:19:10;15.10;99.90
73277;DHT22;61501;43.316;5.372;2024-02-28T13:21:36;14.90;99.90
73277;DHT22;61501;43.316;5.372;2024-02-28T13:24:02;15.10;99.90
73277;DHT22;61501;43.316;5.372;2024-02-28T13:26:28;14.90;99.90
73277;DHT22;61501;43.316;5.372;2024-02-28T13:28:54;14.90;99.90
73277;DHT22;61501;43.316;5.372;2024-02-28T13:31:20;14.80;99.90
73277;DHT22;61501;43.316;5.372;2024-02-28T13:33:46;14.80;99.90
73277;DHT22;61501;43.316;5.372;2024-02-28T13:36:13;14.90;99.90
73277;DHT22;61501;43.316;5.372;2024-02-28T13:38:39;15.00;99.90
73277;DHT22;61501;43.316;5.372;2024-02-28T13:41:05;15.10;99.90
73277;DHT22;61501;43.316;5.372;2024-02-28T13:43:31;14.90;99.90
73277;DHT22;61501;43.316;5.372;2024-02-28T13:45:56;14.70;99.90
73277;DHT22;61501;43.316;5.372;2024-02-28T13:48:26;14.70;99.90
73277;DHT22;61501;43.316;5.372;2024-02-28T13:50:54;14.60;99.90
73277;DHT22;61501;43.316;5.372;2024-02-28T13:53:20;14.40;99.90
73277;DHT22;61501;43.316;5.372;2024-02-28T13:55:46;14.50;99.90
73277;DHT22;61501;43.316;5.372;2024-02-28T13:58:12;14.50;99.90
73277;DHT22;61501;43.316;5.372;2024-02-28T14:00:38;14.50;99.90
73277;DHT22;61501;43.316;5.372;2024-02-28T14:03:05;14.50;99.90
73277;DHT22;61501;43.316;5.372;2024-02-28T14:05:32;14.50;99.90
73277;DHT22;61501;43.316;5.372;2024-02-28T14:07:57;14.60;99.90
73277;DHT22;61501;43.316;5.372;2024-02-28T14:10:24;14.60;99.90
73277;DHT22;61501;43.316;5.372;2024-02-28T14:12:50;14.60;99.90
73277;DHT22;61501;43.316;5.372;2024-02-28T14:15:21;14.80;99.90
73277;DHT22;61501;43.316;5.372;2024-02-28T14:17:48;14.90;99.90
73277;DHT22;61501;43.316;5.372;2024-02-28T14:20:13;14.80;99.90
73277;DHT22;61501;43.316;5.372;2024-02-28T14:22:40;14.60;99.90
73277;DHT22;61501;43.316;5.372;2024-02-28T14:25:11;14.50;99.90
73277;DHT22;61501;43.316;5.372;2024-02-28T14:27:38;14.30;99.90
73277;DHT22;61501;43.316;5.372;2024-02-28T14:30:07;14.40;99.90
73277;DHT22;61501;43.316;5.372;2024-02-28T14:32:37;14.50;99.90
73277;DHT22;61501;43.316;5.372;2024-02-28T14:35:06;14.70;99.90
73277;DHT22;61501;43.316;5.372;2024-02-28T14:37:34;14.70;99.90
73277;DHT22;61501;43.316;5.372;2024-02-28T14:40:00;14.60;99.90
73277;DHT22;61501;43.316;5.372;2024-02-28T14:42:32;14.50;99.90
73277;DHT22;61501;43.316;5.372;2024-02-28T14:44:59;14.40;99.90
73277;DHT22;61501;43.316;5.372;2024-02-28T14:47:25;14.60;99.90
73277;DHT22;61501;43.316;5.372;2024-02-28T14:49:51;14.70;99.90
73277;DHT22;61501;43.316;5.372;2024-02-28T14:52:16;15.10;99.90
73277;DHT22;61501;43.316;5.372;2024-02-28T14:54:42;15.30;99.90
73277;DHT22;61501;43.316;5.372;2024-02-28T14:57:09;15.20;99.90
73277;DHT22;61501;43.316;5.372;2024-02-28T14:59:35;14.80;99.90
73277;DHT22;61501;43.316;5.372;2024-02-28T15:02:01;14.70;99.90
73277;DHT22;61501;43.316;5.372;2024-02-28T15:04:27;14.60;99.90
73277;DHT22;61501;43.316;5.372;2024-02-28T15:06:53;14.50;99.90
73277;DHT22;61501;43.316;5.372;2024-02-28T15:09:19;14.50;99.90
73277;DHT22;61501;43.316;5.372;2024-02-28T15:11:47;14.50;99.90
73277;DHT22;61501;43.316;5.372;2024-02-28T15:14:13;14.40;99.90
73277;DHT22;61501;43.316;5.372;2024-02-28T15:16:40;14.50;99.90
73277;DHT22;61501;43.316;5.372;2024-02-28T15:19:05;14.50;99.90
73277;DHT22;61501;43.316;5.372;2024-02-28T15:21:31;14.50;99.90
73277;DHT22;61501;43.316;5.372;2024-02-28T15:23:57;14.50;99.90